Terminal Aerodrome Forecast
Issued by NWS

Home | Current Version | Previous Version | Graphics & Text | Print | Product List | Glossary On
Versions: 1 2 3 4 5 6 7 8 9 10 11 12 13 14 15 16 17 18 19 20 21 22 23
000
FTUS43 KBIS 172200 AAC
TAFMOT
TAF AMD
KMOT 172211Z 1722/1818 13008KT P6SM SCT014
     FM180200 14007KT P6SM -SN OVC014=

USA.gov is the U.S. government's official web portal to all federal, state and local government web resources and services.